Terminal Aerodrome Forecast
Issued by NWS

Home | Current Version | Previous Version | Text Only | Print | Product List | Glossary On
Versions: 1 2 3 4 5 6 7 8 9 10 11 12 13 14 15 16 17 18 19 20 21 22 23 24 25 26 27 28 29 30 31 32
000
FTUS43 KFGF 230520
TAFTVF
TAF
KTVF 230520Z 2306/2406 32015G23KT P6SM BKN010
     FM231200 32007KT P6SM OVC015
     FM231700 35009KT P6SM OVC015
     FM231800 35009KT P6SM BKN020
     FM240500 03008KT P6SM VCSH OVC015=

USA.gov is the U.S. government's official web portal to all federal, state and local government web resources and services.